sensor_id;sensor_type;location;lat;lon;timestamp;P1;durP1;ratioP1;P2;durP2;ratioP2
70337;SDS011;57757;53.198;19.646;2022-12-18T00:03:54;50.00;;;16.40;;
70337;SDS011;57757;53.198;19.646;2022-12-18T00:06:23;52.60;;;16.10;;
70337;SDS011;57757;53.198;19.646;2022-12-18T00:08:52;53.70;;;16.30;;
70337;SDS011;57757;53.198;19.646;2022-12-18T00:11:22;60.60;;;19.20;;
70337;SDS011;57757;53.198;19.646;2022-12-18T00:13:52;58.40;;;17.00;;
70337;SDS011;57757;53.198;19.646;2022-12-18T00:16:22;62.50;;;17.30;;
70337;SDS011;57757;53.198;19.646;2022-12-18T00:18:52;56.20;;;16.40;;
70337;SDS011;57757;53.198;19.646;2022-12-18T00:21:21;52.90;;;15.90;;
70337;SDS011;57757;53.198;19.646;2022-12-18T00:23:49;44.70;;;14.30;;
70337;SDS011;57757;53.198;19.646;2022-12-18T00:29:03;56.00;;;17.50;;
70337;SDS011;57757;53.198;19.646;2022-12-18T00:31:33;50.10;;;16.20;;
70337;SDS011;57757;53.198;19.646;2022-12-18T00:34:01;48.60;;;18.30;;
70337;SDS011;57757;53.198;19.646;2022-12-18T00:36:31;60.80;;;19.60;;
70337;SDS011;57757;53.198;19.646;2022-12-18T00:39:02;52.80;;;15.90;;
70337;SDS011;57757;53.198;19.646;2022-12-18T00:41:31;52.70;;;16.40;;
70337;SDS011;57757;53.198;19.646;2022-12-18T00:44:16;46.80;;;14.10;;
70337;SDS011;57757;53.198;19.646;2022-12-18T00:46:45;49.40;;;15.70;;
70337;SDS011;57757;53.198;19.646;2022-12-18T00:49:14;52.90;;;16.10;;
70337;SDS011;57757;53.198;19.646;2022-12-18T00:51:43;51.70;;;15.50;;
70337;SDS011;57757;53.198;19.646;2022-12-18T00:54:11;51.80;;;17.30;;
70337;SDS011;57757;53.198;19.646;2022-12-18T00:56:39;53.60;;;16.50;;
70337;SDS011;57757;53.198;19.646;2022-12-18T00:59:15;42.50;;;13.70;;
70337;SDS011;57757;53.198;19.646;2022-12-18T01:01:44;46.90;;;14.00;;
70337;SDS011;57757;53.198;19.646;2022-12-18T01:04:13;43.80;;;13.10;;
70337;SDS011;57757;53.198;19.646;2022-12-18T01:06:41;44.40;;;15.90;;
70337;SDS011;57757;53.198;19.646;2022-12-18T01:09:08;43.00;;;13.80;;
70337;SDS011;57757;53.198;19.646;2022-12-18T01:11:36;38.40;;;13.00;;
70337;SDS011;57757;53.198;19.646;2022-12-18T01:14:03;43.60;;;13.20;;
70337;SDS011;57757;53.198;19.646;2022-12-18T01:16:31;37.60;;;13.00;;
70337;SDS011;57757;53.198;19.646;2022-12-18T01:18:59;54.40;;;20.40;;
70337;SDS011;57757;53.198;19.646;2022-12-18T01:21:27;51.60;;;16.50;;
70337;SDS011;57757;53.198;19.646;2022-12-18T01:23:54;45.80;;;16.40;;
70337;SDS011;57757;53.198;19.646;2022-12-18T01:26:23;46.30;;;17.80;;
70337;SDS011;57757;53.198;19.646;2022-12-18T01:28:54;47.20;;;16.20;;
70337;SDS011;57757;53.198;19.646;2022-12-18T01:31:24;39.30;;;14.30;;
70337;SDS011;57757;53.198;19.646;2022-12-18T01:33:57;46.00;;;14.20;;
70337;SDS011;57757;53.198;19.646;2022-12-18T01:36:28;42.90;;;13.30;;
70337;SDS011;57757;53.198;19.646;2022-12-18T01:39:02;47.80;;;15.40;;
70337;SDS011;57757;53.198;19.646;2022-12-18T01:41:32;46.60;;;15.60;;
70337;SDS011;57757;53.198;19.646;2022-12-18T01:50:13;44.00;;;17.90;;
70337;SDS011;57757;53.198;19.646;2022-12-18T01:52:45;39.10;;;13.50;;
70337;SDS011;57757;53.198;19.646;2022-12-18T01:55:16;37.30;;;12.90;;
70337;SDS011;57757;53.198;19.646;2022-12-18T01:57:47;42.10;;;15.00;;
70337;SDS011;57757;53.198;19.646;2022-12-18T02:00:17;39.20;;;12.30;;
70337;SDS011;57757;53.198;19.646;2022-12-18T02:02:47;41.90;;;15.30;;
70337;SDS011;57757;53.198;19.646;2022-12-18T02:05:21;45.80;;;16.10;;
70337;SDS011;57757;53.198;19.646;2022-12-18T02:13:29;38.80;;;12.50;;
70337;SDS011;57757;53.198;19.646;2022-12-18T02:16:09;37.90;;;11.90;;
70337;SDS011;57757;53.198;19.646;2022-12-18T02:18:56;49.70;;;17.00;;
70337;SDS011;57757;53.198;19.646;2022-12-18T02:27:03;51.20;;;15.90;;
70337;SDS011;57757;53.198;19.646;2022-12-18T02:29:38;57.30;;;16.30;;
70337;SDS011;57757;53.198;19.646;2022-12-18T02:32:15;48.30;;;15.00;;
70337;SDS011;57757;53.198;19.646;2022-12-18T02:34:47;48.10;;;14.00;;
70337;SDS011;57757;53.198;19.646;2022-12-18T02:37:18;54.90;;;15.90;;
70337;SDS011;57757;53.198;19.646;2022-12-18T02:39:47;40.10;;;13.10;;
70337;SDS011;57757;53.198;19.646;2022-12-18T02:42:16;63.50;;;19.20;;
70337;SDS011;57757;53.198;19.646;2022-12-18T02:44:47;52.00;;;15.20;;
70337;SDS011;57757;53.198;19.646;2022-12-18T02:47:17;51.30;;;15.50;;
70337;SDS011;57757;53.198;19.646;2022-12-18T03:04:20;38.10;;;13.40;;
70337;SDS011;57757;53.198;19.646;2022-12-18T03:06:57;38.40;;;13.80;;
70337;SDS011;57757;53.198;19.646;2022-12-18T03:09:37;35.60;;;12.10;;
70337;SDS011;57757;53.198;19.646;2022-12-18T03:12:19;41.40;;;13.30;;
70337;SDS011;57757;53.198;19.646;2022-12-18T03:17:59;46.50;;;15.20;;
70337;SDS011;57757;53.198;19.646;2022-12-18T03:20:31;42.50;;;12.80;;
70337;SDS011;57757;53.198;19.646;2022-12-18T03:23:07;48.40;;;13.00;;
70337;SDS011;57757;53.198;19.646;2022-12-18T03:25:39;61.30;;;23.30;;
70337;SDS011;57757;53.198;19.646;2022-12-18T03:28:13;50.00;;;16.20;;
70337;SDS011;57757;53.198;19.646;2022-12-18T03:30:44;47.30;;;16.30;;
70337;SDS011;57757;53.198;19.646;2022-12-18T03:36:00;56.20;;;17.40;;
70337;SDS011;57757;53.198;19.646;2022-12-18T03:38:28;64.00;;;22.40;;
70337;SDS011;57757;53.198;19.646;2022-12-18T03:40:59;67.70;;;20.70;;
70337;SDS011;57757;53.198;19.646;2022-12-18T03:48:54;52.40;;;16.30;;
70337;SDS011;57757;53.198;19.646;2022-12-18T03:51:41;70.00;;;19.90;;
70337;SDS011;57757;53.198;19.646;2022-12-18T03:54:18;76.80;;;21.00;;
70337;SDS011;57757;53.198;19.646;2022-12-18T03:56:48;67.30;;;20.30;;
70337;SDS011;57757;53.198;19.646;2022-12-18T03:59:22;73.50;;;21.30;;
70337;SDS011;57757;53.198;19.646;2022-12-18T04:01:51;73.00;;;21.30;;
70337;SDS011;57757;53.198;19.646;2022-12-18T04:04:22;64.60;;;20.80;;
70337;SDS011;57757;53.198;19.646;2022-12-18T04:06:52;57.30;;;17.60;;
70337;SDS011;57757;53.198;19.646;2022-12-18T04:09:20;66.30;;;20.20;;
70337;SDS011;57757;53.198;19.646;2022-12-18T04:11:48;55.00;;;16.20;;
70337;SDS011;57757;53.198;19.646;2022-12-18T04:14:16;69.10;;;24.50;;
70337;SDS011;57757;53.198;19.646;2022-12-18T04:16:44;53.60;;;10.00;;
70337;SDS011;57757;53.198;19.646;2022-12-18T04:19:12;65.10;;;20.20;;
70337;SDS011;57757;53.198;19.646;2022-12-18T04:21:40;64.40;;;22.10;;
70337;SDS011;57757;53.198;19.646;2022-12-18T04:24:07;66.60;;;19.50;;
70337;SDS011;57757;53.198;19.646;2022-12-18T04:26:35;68.40;;;21.30;;
70337;SDS011;57757;53.198;19.646;2022-12-18T04:29:03;65.40;;;19.10;;
70337;SDS011;57757;53.198;19.646;2022-12-18T04:31:31;60.00;;;21.00;;
70337;SDS011;57757;53.198;19.646;2022-12-18T04:33:59;62.00;;;18.90;;
70337;SDS011;57757;53.198;19.646;2022-12-18T04:36:27;58.20;;;19.20;;
70337;SDS011;57757;53.198;19.646;2022-12-18T04:38:54;51.90;;;16.60;;
70337;SDS011;57757;53.198;19.646;2022-12-18T04:41:22;50.70;;;17.30;;
70337;SDS011;57757;53.198;19.646;2022-12-18T04:43:50;64.50;;;20.90;;
70337;SDS011;57757;53.198;19.646;2022-12-18T04:46:17;48.40;;;16.40;;
70337;SDS011;57757;53.198;19.646;2022-12-18T04:48:45;54.50;;;18.60;;
70337;SDS011;57757;53.198;19.646;2022-12-18T04:51:14;50.10;;;17.30;;
70337;SDS011;57757;53.198;19.646;2022-12-18T04:53:41;43.50;;;15.80;;
70337;SDS011;57757;53.198;19.646;2022-12-18T04:56:10;48.90;;;15.70;;
70337;SDS011;57757;53.198;19.646;2022-12-18T04:58:41;51.60;;;15.70;;
70337;SDS011;57757;53.198;19.646;2022-12-18T05:01:10;51.80;;;16.50;;
70337;SDS011;57757;53.198;19.646;2022-12-18T05:03:39;49.30;;;15.70;;
70337;SDS011;57757;53.198;19.646;2022-12-18T05:06:08;48.80;;;16.60;;
70337;SDS011;57757;53.198;19.646;2022-12-18T05:08:37;48.70;;;16.70;;
70337;SDS011;57757;53.198;19.646;2022-12-18T05:11:09;50.20;;;18.40;;
70337;SDS011;57757;53.198;19.646;2022-12-18T05:13:43;44.40;;;15.00;;
70337;SDS011;57757;53.198;19.646;2022-12-18T05:16:12;49.30;;;15.80;;
70337;SDS011;57757;53.198;19.646;2022-12-18T05:18:41;48.00;;;14.30;;
70337;SDS011;57757;53.198;19.646;2022-12-18T05:21:08;39.80;;;12.60;;
70337;SDS011;57757;53.198;19.646;2022-12-18T05:23:36;43.70;;;15.30;;
70337;SDS011;57757;53.198;19.646;2022-12-18T05:26:05;43.50;;;13.90;;
70337;SDS011;57757;53.198;19.646;2022-12-18T05:28:35;36.60;;;12.50;;
70337;SDS011;57757;53.198;19.646;2022-12-18T05:31:03;36.60;;;11.60;;
70337;SDS011;57757;53.198;19.646;2022-12-18T05:33:33;32.30;;;11.70;;
70337;SDS011;57757;53.198;19.646;2022-12-18T05:36:02;47.00;;;15.80;;
70337;SDS011;57757;53.198;19.646;2022-12-18T05:38:32;40.40;;;12.80;;
70337;SDS011;57757;53.198;19.646;2022-12-18T05:41:01;40.80;;;16.90;;
70337;SDS011;57757;53.198;19.646;2022-12-18T05:43:29;45.80;;;14.40;;
70337;SDS011;57757;53.198;19.646;2022-12-18T05:45:56;42.40;;;13.60;;
70337;SDS011;57757;53.198;19.646;2022-12-18T05:48:24;47.20;;;15.00;;
70337;SDS011;57757;53.198;19.646;2022-12-18T05:50:52;40.60;;;13.60;;
70337;SDS011;57757;53.198;19.646;2022-12-18T05:53:19;43.90;;;15.60;;
70337;SDS011;57757;53.198;19.646;2022-12-18T05:55:47;42.80;;;15.20;;
70337;SDS011;57757;53.198;19.646;2022-12-18T05:58:15;36.00;;;13.30;;
70337;SDS011;57757;53.198;19.646;2022-12-18T06:00:44;42.70;;;14.60;;
70337;SDS011;57757;53.198;19.646;2022-12-18T06:03:13;51.10;;;15.90;;
70337;SDS011;57757;53.198;19.646;2022-12-18T06:05:42;44.40;;;15.50;;
70337;SDS011;57757;53.198;19.646;2022-12-18T06:08:12;48.90;;;16.70;;
70337;SDS011;57757;53.198;19.646;2022-12-18T06:10:40;48.90;;;17.40;;
70337;SDS011;57757;53.198;19.646;2022-12-18T06:13:08;51.90;;;18.50;;
70337;SDS011;57757;53.198;19.646;2022-12-18T06:15:36;46.00;;;15.90;;
70337;SDS011;57757;53.198;19.646;2022-12-18T06:18:04;55.40;;;17.80;;
70337;SDS011;57757;53.198;19.646;2022-12-18T06:20:32;147.40;;;40.30;;
70337;SDS011;57757;53.198;19.646;2022-12-18T06:23:00;174.00;;;53.00;;
70337;SDS011;57757;53.198;19.646;2022-12-18T06:25:28;318.90;;;110.70;;
70337;SDS011;57757;53.198;19.646;2022-12-18T06:27:55;244.60;;;87.60;;
70337;SDS011;57757;53.198;19.646;2022-12-18T06:30:23;136.90;;;44.50;;
70337;SDS011;57757;53.198;19.646;2022-12-18T06:32:50;125.00;;;34.90;;
70337;SDS011;57757;53.198;19.646;2022-12-18T06:35:23;155.60;;;54.50;;
70337;SDS011;57757;53.198;19.646;2022-12-18T06:37:51;128.10;;;46.70;;
70337;SDS011;57757;53.198;19.646;2022-12-18T06:40:19;148.40;;;41.90;;
70337;SDS011;57757;53.198;19.646;2022-12-18T06:42:46;92.80;;;31.00;;
70337;SDS011;57757;53.198;19.646;2022-12-18T06:45:14;63.90;;;26.60;;
70337;SDS011;57757;53.198;19.646;2022-12-18T06:47:41;70.10;;;26.00;;
70337;SDS011;57757;53.198;19.646;2022-12-18T06:50:09;112.50;;;35.00;;
70337;SDS011;57757;53.198;19.646;2022-12-18T06:52:37;71.10;;;26.80;;
70337;SDS011;57757;53.198;19.646;2022-12-18T06:55:08;73.30;;;24.60;;
70337;SDS011;57757;53.198;19.646;2022-12-18T06:57:35;71.00;;;22.70;;
70337;SDS011;57757;53.198;19.646;2022-12-18T07:00:04;66.70;;;21.60;;
70337;SDS011;57757;53.198;19.646;2022-12-18T07:02:33;57.00;;;17.80;;
70337;SDS011;57757;53.198;19.646;2022-12-18T07:05:01;57.90;;;17.30;;
70337;SDS011;57757;53.198;19.646;2022-12-18T07:07:36;60.30;;;20.90;;
70337;SDS011;57757;53.198;19.646;2022-12-18T07:10:04;60.00;;;19.60;;
70337;SDS011;57757;53.198;19.646;2022-12-18T07:12:32;90.30;;;25.60;;
70337;SDS011;57757;53.198;19.646;2022-12-18T07:14:59;75.40;;;22.80;;
70337;SDS011;57757;53.198;19.646;2022-12-18T07:17:27;95.90;;;27.80;;
70337;SDS011;57757;53.198;19.646;2022-12-18T07:19:54;74.30;;;22.30;;
70337;SDS011;57757;53.198;19.646;2022-12-18T07:22:22;79.40;;;23.70;;
70337;SDS011;57757;53.198;19.646;2022-12-18T07:24:49;69.30;;;21.10;;
70337;SDS011;57757;53.198;19.646;2022-12-18T07:27:17;121.10;;;33.50;;
70337;SDS011;57757;53.198;19.646;2022-12-18T07:29:44;72.70;;;20.00;;
70337;SDS011;57757;53.198;19.646;2022-12-18T07:32:12;78.50;;;23.50;;
70337;SDS011;57757;53.198;19.646;2022-12-18T07:34:40;65.60;;;19.30;;
70337;SDS011;57757;53.198;19.646;2022-12-18T07:37:08;79.20;;;25.30;;
70337;SDS011;57757;53.198;19.646;2022-12-18T07:39:35;106.00;;;33.10;;
70337;SDS011;57757;53.198;19.646;2022-12-18T07:42:03;80.20;;;25.00;;
70337;SDS011;57757;53.198;19.646;2022-12-18T07:44:47;70.30;;;22.20;;
70337;SDS011;57757;53.198;19.646;2022-12-18T07:47:15;66.10;;;21.20;;
70337;SDS011;57757;53.198;19.646;2022-12-18T07:49:42;111.90;;;31.00;;
70337;SDS011;57757;53.198;19.646;2022-12-18T07:52:10;84.00;;;24.10;;
70337;SDS011;57757;53.198;19.646;2022-12-18T07:54:39;110.60;;;33.80;;
70337;SDS011;57757;53.198;19.646;2022-12-18T07:57:07;98.80;;;27.30;;
70337;SDS011;57757;53.198;19.646;2022-12-18T07:59:56;85.80;;;26.10;;
70337;SDS011;57757;53.198;19.646;2022-12-18T08:02:23;70.50;;;21.50;;
70337;SDS011;57757;53.198;19.646;2022-12-18T08:04:51;71.20;;;22.60;;
70337;SDS011;57757;53.198;19.646;2022-12-18T08:07:18;74.20;;;24.70;;
70337;SDS011;57757;53.198;19.646;2022-12-18T08:09:46;84.20;;;24.80;;
70337;SDS011;57757;53.198;19.646;2022-12-18T08:12:13;79.40;;;22.00;;
70337;SDS011;57757;53.198;19.646;2022-12-18T08:14:41;96.50;;;27.10;;
70337;SDS011;57757;53.198;19.646;2022-12-18T08:17:08;74.20;;;22.50;;
70337;SDS011;57757;53.198;19.646;2022-12-18T08:19:36;76.30;;;21.80;;
70337;SDS011;57757;53.198;19.646;2022-12-18T08:22:03;86.60;;;25.70;;
70337;SDS011;57757;53.198;19.646;2022-12-18T08:24:31;69.10;;;23.50;;
70337;SDS011;57757;53.198;19.646;2022-12-18T08:26:58;90.10;;;27.20;;
70337;SDS011;57757;53.198;19.646;2022-12-18T08:29:46;86.00;;;25.00;;
70337;SDS011;57757;53.198;19.646;2022-12-18T08:32:14;170.00;;;51.80;;
70337;SDS011;57757;53.198;19.646;2022-12-18T08:34:41;142.40;;;52.10;;
70337;SDS011;57757;53.198;19.646;2022-12-18T08:37:09;106.90;;;36.50;;
70337;SDS011;57757;53.198;19.646;2022-12-18T08:39:37;93.30;;;32.80;;
70337;SDS011;57757;53.198;19.646;2022-12-18T08:42:04;190.70;;;55.40;;
70337;SDS011;57757;53.198;19.646;2022-12-18T08:44:48;101.50;;;30.70;;
70337;SDS011;57757;53.198;19.646;2022-12-18T08:47:15;75.60;;;21.40;;
70337;SDS011;57757;53.198;19.646;2022-12-18T08:49:42;60.70;;;20.00;;
70337;SDS011;57757;53.198;19.646;2022-12-18T08:52:10;101.00;;;28.20;;
70337;SDS011;57757;53.198;19.646;2022-12-18T08:54:42;73.90;;;26.50;;
70337;SDS011;57757;53.198;19.646;2022-12-18T08:57:10;74.60;;;23.50;;
70337;SDS011;57757;53.198;19.646;2022-12-18T08:59:38;72.60;;;23.70;;
70337;SDS011;57757;53.198;19.646;2022-12-18T09:02:06;63.50;;;21.50;;
70337;SDS011;57757;53.198;19.646;2022-12-18T09:04:34;71.70;;;23.60;;
70337;SDS011;57757;53.198;19.646;2022-12-18T09:07:01;66.10;;;23.30;;
70337;SDS011;57757;53.198;19.646;2022-12-18T09:09:29;64.50;;;21.70;;
70337;SDS011;57757;53.198;19.646;2022-12-18T09:11:56;86.80;;;26.10;;
70337;SDS011;57757;53.198;19.646;2022-12-18T09:14:24;93.20;;;29.20;;
70337;SDS011;57757;53.198;19.646;2022-12-18T09:16:52;82.90;;;25.80;;
70337;SDS011;57757;53.198;19.646;2022-12-18T09:19:19;99.40;;;32.10;;
70337;SDS011;57757;53.198;19.646;2022-12-18T09:21:47;90.90;;;31.40;;
70337;SDS011;57757;53.198;19.646;2022-12-18T09:24:15;87.00;;;27.30;;
70337;SDS011;57757;53.198;19.646;2022-12-18T09:26:43;94.20;;;35.40;;
70337;SDS011;57757;53.198;19.646;2022-12-18T09:29:14;82.90;;;26.50;;
70337;SDS011;57757;53.198;19.646;2022-12-18T09:31:45;80.90;;;28.10;;
70337;SDS011;57757;53.198;19.646;2022-12-18T09:34:13;93.80;;;33.70;;
70337;SDS011;57757;53.198;19.646;2022-12-18T09:36:41;178.10;;;62.20;;
70337;SDS011;57757;53.198;19.646;2022-12-18T09:39:10;143.10;;;47.30;;
70337;SDS011;57757;53.198;19.646;2022-12-18T09:44:24;119.10;;;37.60;;
70337;SDS011;57757;53.198;19.646;2022-12-18T09:47:13;118.10;;;39.70;;
70337;SDS011;57757;53.198;19.646;2022-12-18T09:49:47;206.70;;;59.40;;
70337;SDS011;57757;53.198;19.646;2022-12-18T09:55:16;145.30;;;37.90;;
70337;SDS011;57757;53.198;19.646;2022-12-18T09:57:47;113.00;;;37.40;;
70337;SDS011;57757;53.198;19.646;2022-12-18T10:00:21;82.90;;;26.90;;
70337;SDS011;57757;53.198;19.646;2022-12-18T10:02:56;96.10;;;28.50;;
70337;SDS011;57757;53.198;19.646;2022-12-18T10:08:17;104.20;;;29.30;;
70337;SDS011;57757;53.198;19.646;2022-12-18T10:10:52;127.60;;;36.10;;
70337;SDS011;57757;53.198;19.646;2022-12-18T10:13:28;112.90;;;31.20;;
70337;SDS011;57757;53.198;19.646;2022-12-18T10:24:42;118.50;;;36.60;;
70337;SDS011;57757;53.198;19.646;2022-12-18T10:27:16;128.20;;;41.90;;
70337;SDS011;57757;53.198;19.646;2022-12-18T10:29:45;113.40;;;35.80;;
70337;SDS011;57757;53.198;19.646;2022-12-18T10:32:31;109.20;;;31.60;;
70337;SDS011;57757;53.198;19.646;2022-12-18T10:34:59;118.30;;;36.50;;
70337;SDS011;57757;53.198;19.646;2022-12-18T10:37:28;118.70;;;34.60;;
70337;SDS011;57757;53.198;19.646;2022-12-18T10:45:40;80.50;;;26.70;;
70337;SDS011;57757;53.198;19.646;2022-12-18T10:50:54;84.30;;;26.50;;
70337;SDS011;57757;53.198;19.646;2022-12-18T10:53:40;111.40;;;35.20;;
70337;SDS011;57757;53.198;19.646;2022-12-18T10:56:10;78.60;;;28.60;;
70337;SDS011;57757;53.198;19.646;2022-12-18T10:58:39;87.60;;;29.00;;
70337;SDS011;57757;53.198;19.646;2022-12-18T11:06:28;72.10;;;22.80;;
70337;SDS011;57757;53.198;19.646;2022-12-18T11:09:04;73.50;;;22.30;;
70337;SDS011;57757;53.198;19.646;2022-12-18T11:11:54;72.30;;;21.10;;
70337;SDS011;57757;53.198;19.646;2022-12-18T11:16:59;101.00;;;31.20;;
70337;SDS011;57757;53.198;19.646;2022-12-18T11:19:55;81.20;;;23.20;;
70337;SDS011;57757;53.198;19.646;2022-12-18T11:22:29;94.50;;;29.10;;
70337;SDS011;57757;53.198;19.646;2022-12-18T11:25:00;88.30;;;28.80;;
70337;SDS011;57757;53.198;19.646;2022-12-18T11:28:47;112.20;;;34.60;;
70337;SDS011;57757;53.198;19.646;2022-12-18T11:34:09;104.60;;;32.00;;
70337;SDS011;57757;53.198;19.646;2022-12-18T11:36:59;91.20;;;25.80;;
70337;SDS011;57757;53.198;19.646;2022-12-18T11:42:27;94.10;;;24.70;;
70337;SDS011;57757;53.198;19.646;2022-12-18T11:45:08;112.30;;;28.60;;
70337;SDS011;57757;53.198;19.646;2022-12-18T11:48:01;80.90;;;20.80;;
70337;SDS011;57757;53.198;19.646;2022-12-18T11:53:25;87.00;;;25.10;;
70337;SDS011;57757;53.198;19.646;2022-12-18T11:58:46;74.30;;;22.90;;
70337;SDS011;57757;53.198;19.646;2022-12-18T12:24:04;58.40;;;19.60;;
70337;SDS011;57757;53.198;19.646;2022-12-18T12:40:41;126.30;;;32.90;;
70337;SDS011;57757;53.198;19.646;2022-12-18T12:46:18;74.20;;;21.00;;
70337;SDS011;57757;53.198;19.646;2022-12-18T12:48:51;57.80;;;17.10;;
70337;SDS011;57757;53.198;19.646;2022-12-18T12:54:18;75.60;;;21.80;;
70337;SDS011;57757;53.198;19.646;2022-12-18T13:02:44;101.30;;;26.90;;
70337;SDS011;57757;53.198;19.646;2022-12-18T13:05:27;70.60;;;22.10;;
70337;SDS011;57757;53.198;19.646;2022-12-18T13:08:02;77.20;;;23.00;;
70337;SDS011;57757;53.198;19.646;2022-12-18T13:10:35;151.90;;;42.10;;
70337;SDS011;57757;53.198;19.646;2022-12-18T13:13:13;199.90;;;50.50;;
70337;SDS011;57757;53.198;19.646;2022-12-18T13:18:35;119.20;;;40.60;;
70337;SDS011;57757;53.198;19.646;2022-12-18T13:21:37;95.40;;;31.50;;
70337;SDS011;57757;53.198;19.646;2022-12-18T13:26:53;85.70;;;24.50;;
70337;SDS011;57757;53.198;19.646;2022-12-18T13:45:50;108.50;;;38.20;;
70337;SDS011;57757;53.198;19.646;2022-12-18T13:48:29;98.80;;;32.50;;
70337;SDS011;57757;53.198;19.646;2022-12-18T13:51:07;112.30;;;32.90;;
70337;SDS011;57757;53.198;19.646;2022-12-18T13:53:42;110.20;;;36.00;;
70337;SDS011;57757;53.198;19.646;2022-12-18T13:56:20;92.70;;;29.60;;
70337;SDS011;57757;53.198;19.646;2022-12-18T14:01:45;92.90;;;26.20;;
70337;SDS011;57757;53.198;19.646;2022-12-18T14:04:18;106.40;;;30.40;;
70337;SDS011;57757;53.198;19.646;2022-12-18T14:07:04;99.80;;;30.00;;
70337;SDS011;57757;53.198;19.646;2022-12-18T14:09:36;93.20;;;29.90;;
70337;SDS011;57757;53.198;19.646;2022-12-18T14:12:12;85.50;;;25.00;;
70337;SDS011;57757;53.198;19.646;2022-12-18T14:15:00;118.50;;;35.90;;
70337;SDS011;57757;53.198;19.646;2022-12-18T14:17:27;138.70;;;43.90;;
70337;SDS011;57757;53.198;19.646;2022-12-18T14:19:55;90.70;;;26.30;;
70337;SDS011;57757;53.198;19.646;2022-12-18T14:22:24;99.10;;;28.40;;
70337;SDS011;57757;53.198;19.646;2022-12-18T14:27:45;89.50;;;26.70;;
70337;SDS011;57757;53.198;19.646;2022-12-18T14:33:03;79.80;;;24.30;;
70337;SDS011;57757;53.198;19.646;2022-12-18T14:35:39;71.30;;;20.20;;
70337;SDS011;57757;53.198;19.646;2022-12-18T14:38:36;91.30;;;29.60;;
70337;SDS011;57757;53.198;19.646;2022-12-18T14:41:12;67.40;;;21.20;;
70337;SDS011;57757;53.198;19.646;2022-12-18T14:43:43;82.00;;;23.70;;
70337;SDS011;57757;53.198;19.646;2022-12-18T14:49:04;145.70;;;45.20;;
70337;SDS011;57757;53.198;19.646;2022-12-18T14:51:47;137.00;;;40.20;;
70337;SDS011;57757;53.198;19.646;2022-12-18T14:54:18;111.00;;;37.00;;
70337;SDS011;57757;53.198;19.646;2022-12-18T14:56:48;141.90;;;47.40;;
70337;SDS011;57757;53.198;19.646;2022-12-18T14:59:22;152.10;;;45.20;;
70337;SDS011;57757;53.198;19.646;2022-12-18T15:04:41;102.80;;;30.80;;
70337;SDS011;57757;53.198;19.646;2022-12-18T15:12:35;119.00;;;36.00;;
70337;SDS011;57757;53.198;19.646;2022-12-18T15:15:04;130.30;;;36.50;;
70337;SDS011;57757;53.198;19.646;2022-12-18T15:17:33;294.60;;;79.60;;
70337;SDS011;57757;53.198;19.646;2022-12-18T15:20:02;194.50;;;56.90;;
70337;SDS011;57757;53.198;19.646;2022-12-18T15:22:37;159.20;;;46.80;;
70337;SDS011;57757;53.198;19.646;2022-12-18T15:25:21;189.20;;;62.40;;
70337;SDS011;57757;53.198;19.646;2022-12-18T15:27:59;155.00;;;46.50;;
70337;SDS011;57757;53.198;19.646;2022-12-18T15:30:28;120.30;;;37.10;;
70337;SDS011;57757;53.198;19.646;2022-12-18T15:33:22;94.00;;;33.20;;
70337;SDS011;57757;53.198;19.646;2022-12-18T15:36:00;83.40;;;23.60;;
70337;SDS011;57757;53.198;19.646;2022-12-18T15:38:30;82.70;;;23.30;;
70337;SDS011;57757;53.198;19.646;2022-12-18T15:40:59;70.20;;;22.20;;
70337;SDS011;57757;53.198;19.646;2022-12-18T15:43:27;120.70;;;39.80;;
70337;SDS011;57757;53.198;19.646;2022-12-18T15:46:03;243.40;;;73.40;;
70337;SDS011;57757;53.198;19.646;2022-12-18T15:48:33;135.70;;;39.10;;
70337;SDS011;57757;53.198;19.646;2022-12-18T15:51:04;77.40;;;22.50;;
70337;SDS011;57757;53.198;19.646;2022-12-18T15:53:37;84.30;;;24.50;;
70337;SDS011;57757;53.198;19.646;2022-12-18T15:56:10;64.50;;;19.50;;
70337;SDS011;57757;53.198;19.646;2022-12-18T15:58:56;63.60;;;17.70;;
70337;SDS011;57757;53.198;19.646;2022-12-18T16:01:26;63.60;;;19.70;;
70337;SDS011;57757;53.198;19.646;2022-12-18T16:03:56;65.20;;;18.80;;
70337;SDS011;57757;53.198;19.646;2022-12-18T16:06:24;182.50;;;52.50;;
70337;SDS011;57757;53.198;19.646;2022-12-18T16:08:52;143.90;;;40.60;;
70337;SDS011;57757;53.198;19.646;2022-12-18T16:11:21;204.60;;;54.00;;
70337;SDS011;57757;53.198;19.646;2022-12-18T16:16:55;117.80;;;35.50;;
70337;SDS011;57757;53.198;19.646;2022-12-18T16:19:24;102.90;;;30.30;;
70337;SDS011;57757;53.198;19.646;2022-12-18T16:21:52;86.80;;;27.10;;
70337;SDS011;57757;53.198;19.646;2022-12-18T16:24:24;87.80;;;25.50;;
70337;SDS011;57757;53.198;19.646;2022-12-18T16:26:53;94.90;;;28.30;;
70337;SDS011;57757;53.198;19.646;2022-12-18T16:29:21;87.30;;;24.90;;
70337;SDS011;57757;53.198;19.646;2022-12-18T16:31:54;104.60;;;26.90;;
70337;SDS011;57757;53.198;19.646;2022-12-18T16:34:24;70.40;;;20.60;;
70337;SDS011;57757;53.198;19.646;2022-12-18T16:36:57;67.40;;;18.20;;
70337;SDS011;57757;53.198;19.646;2022-12-18T16:39:32;102.10;;;28.30;;
70337;SDS011;57757;53.198;19.646;2022-12-18T16:42:06;111.00;;;31.50;;
70337;SDS011;57757;53.198;19.646;2022-12-18T16:44:44;97.40;;;26.00;;
70337;SDS011;57757;53.198;19.646;2022-12-18T16:47:13;83.70;;;22.90;;
70337;SDS011;57757;53.198;19.646;2022-12-18T16:49:42;76.80;;;23.50;;
70337;SDS011;57757;53.198;19.646;2022-12-18T16:52:12;68.00;;;19.70;;
70337;SDS011;57757;53.198;19.646;2022-12-18T16:54:41;75.00;;;22.60;;
70337;SDS011;57757;53.198;19.646;2022-12-18T16:57:09;72.30;;;21.70;;
70337;SDS011;57757;53.198;19.646;2022-12-18T16:59:40;62.30;;;17.90;;
70337;SDS011;57757;53.198;19.646;2022-12-18T17:02:12;55.70;;;17.30;;
70337;SDS011;57757;53.198;19.646;2022-12-18T17:04:43;76.60;;;21.00;;
70337;SDS011;57757;53.198;19.646;2022-12-18T17:07:12;114.60;;;33.40;;
70337;SDS011;57757;53.198;19.646;2022-12-18T17:09:40;63.70;;;18.20;;
70337;SDS011;57757;53.198;19.646;2022-12-18T17:12:09;87.10;;;28.90;;
70337;SDS011;57757;53.198;19.646;2022-12-18T17:14:36;89.00;;;26.50;;
70337;SDS011;57757;53.198;19.646;2022-12-18T17:17:04;75.50;;;23.60;;
70337;SDS011;57757;53.198;19.646;2022-12-18T17:19:50;78.20;;;21.60;;
70337;SDS011;57757;53.198;19.646;2022-12-18T17:22:19;92.90;;;26.50;;
70337;SDS011;57757;53.198;19.646;2022-12-18T17:24:50;85.70;;;23.90;;
70337;SDS011;57757;53.198;19.646;2022-12-18T17:27:18;92.90;;;28.30;;
70337;SDS011;57757;53.198;19.646;2022-12-18T17:29:45;104.50;;;28.70;;
70337;SDS011;57757;53.198;19.646;2022-12-18T17:32:15;80.10;;;21.90;;
70337;SDS011;57757;53.198;19.646;2022-12-18T17:34:44;65.70;;;16.80;;
70337;SDS011;57757;53.198;19.646;2022-12-18T17:37:12;64.10;;;17.50;;